CheckWX is a tool to help pilots better visualize weather data.  It is not intended as a substitute for an official pre-flight weather briefing.

06:56:13 UTC

KMKL TAF
Mc Kellar-Sipes Regional Airport
Jackson, Tennessee, USA
KMKL 190531Z 1906/2006 21003KT P6SM VCSH FEW035 BKN090 TEMPO 1909/1913 5SM BR BKN035 FM191600 22011G17KT P6SM VCSH SCT040 BKN150 FM200000 20011G17KT P6SM VCTS BKN045CB BKN120 TEMPO 2002/2006 VRB15G30KT 1SM +TSRA OVC030CB

Jun-19@
06:00 UTC

Jun-19 @ 06:00 UTC

Jun-19@
16:00 UTC

Jun-19 @ 16:00 UTC

KMKL 190531Z 1906/2006 21003KT P6SM VCSH FEW035 BKN090
Wind
  • 210° at 3 KTS
Cloud Levels
  • Few at 3,500' AGL
  • Broken at 9,000' AGL

Jun-19@
09:00 UTC

Jun-19 @ 09:00 UTC

Jun-19@
13:00 UTC

Jun-19 @ 13:00 UTC

TEMPO 1909/1913 5SM BR BKN035

Temporary

Temporary Changes expected for less than half the time period

Conditions
Mist
Cloud Levels
  • Broken at 3,500' AGL

Jun-19@
16:00 UTC

Jun-19 @ 16:00 UTC

Jun-20@
00:00 UTC

Jun-20 @ 00:00 UTC

FM191600 22011G17KT P6SM VCSH SCT040 BKN150

From

From Standard forecast or significant change

Wind
  • 220° at 11 KTS
  • {Gusting to 17 KTS
Cloud Levels
  • Scattered at 4,000' AGL
  • Broken at 15,000' AGL

Jun-20@
00:00 UTC

Jun-20 @ 00:00 UTC

Jun-20@
06:00 UTC

Jun-20 @ 06:00 UTC

FM200000 20011G17KT P6SM VCTS BKN045CB BKN120

From

From Standard forecast or significant change

Wind
  • 200° at 11 KTS
  • {Gusting to 17 KTS
Conditions
Area Thunderstorm
Cloud Levels
  • Broken at 4,500' AGL
  • Broken at 12,000' AGL

Jun-20@
02:00 UTC

Jun-20 @ 02:00 UTC

Jun-20@
06:00 UTC

Jun-20 @ 06:00 UTC

TEMPO 2002/2006 VRB15G30KT 1SM +TSRA OVC030CB

Temporary

Temporary Changes expected for less than half the time period

Wind
  • Variable at 15 KTS
  • {Gusting to 30 KTS
Conditions
Heavy Thunderstorm, Heavy Rain
Cloud Levels
  • Overcast at 3,000' AGL